Time;durP1;ratioP1;P1;durP2;ratioP2;P2;SDS_P1;SDS_P2;PMS_P1;PMS_P2;Temp;Humidity;BMP_temperature;BMP_pressure;BME280_temperature;BME280_humidity;BME280_pressure;Samples;Min_cycle;Max_cycle;Signal;HPM_P1;HPM_P2
2022/01/17 00:00:40;;;;;;;34.98;20.45;;;;;;;2.03;61.69;97314.50;1769990;80;25828;-85
2022/01/17 00:03:08;;;;;;;32.50;18.90;;;;;;;2.04;61.83;97314.00;1769627;81;25849;-85
2022/01/17 00:05:34;;;;;;;33.20;18.87;;;;;;;2.03;61.74;97313.66;1770049;81;25730;-85
2022/01/17 00:08:01;;;;;;;36.20;19.70;;;;;;;1.98;61.72;97309.30;1769910;81;27371;-85
2022/01/17 00:10:28;;;;;;;33.50;19.00;;;;;;;1.97;61.96;97307.62;1769850;81;25913;-85
2022/01/17 00:12:57;;;;;;;31.85;18.67;;;;;;;1.97;61.93;97299.64;1769882;80;25774;-85
2022/01/17 00:15:47;;;;;;;29.02;18.55;;;;;;;1.98;62.01;97296.83;1769925;81;25703;-85
2022/01/17 00:20:38;;;;;;;27.52;16.15;;;;;;;2.00;62.11;97288.69;1770095;81;27330;-85
2022/01/17 00:23:05;;;;;;;27.07;13.98;;;;;;;1.98;62.29;97295.99;1769957;80;25753;-86
2022/01/17 00:25:32;;;;;;;26.70;13.93;;;;;;;1.97;62.25;97291.66;1769756;81;25884;-84
2022/01/17 00:27:58;;;;;;;26.93;13.95;;;;;;;1.96;62.54;97287.33;1770184;80;25844;-85
2022/01/17 00:30:25;;;;;;;25.32;14.70;;;;;;;1.98;62.55;97288.00;1770060;81;25763;-85
2022/01/17 00:32:52;;;;;;;24.10;15.65;;;;;;;1.98;62.76;97278.69;1770083;81;28006;-85
2022/01/17 00:35:18;;;;;;;30.20;16.60;;;;;;;1.97;62.60;97279.19;1770027;81;25999;-84
2022/01/17 00:37:45;;;;;;;28.07;15.05;;;;;;;1.96;62.66;97273.52;1735829;82;25809;-83
2022/01/17 00:40:13;;;;;;;25.77;15.80;;;;;;;1.96;62.69;97278.01;1735546;81;25794;-85
2022/01/17 00:42:40;;;;;;;29.45;15.40;;;;;;;1.92;62.68;97265.54;1770073;80;25762;-85
2022/01/17 00:45:08;;;;;;;28.62;14.63;;;;;;;1.92;62.82;97264.70;1735783;82;28442;-84
2022/01/17 00:47:35;;;;;;;25.55;14.85;;;;;;;1.89;62.77;97265.85;1735742;82;25779;-84
2022/01/17 00:50:02;;;;;;;25.32;14.75;;;;;;;1.87;62.84;97263.01;1735670;81;26368;-85
2022/01/17 00:52:29;;;;;;;20.97;12.85;;;;;;;1.86;62.78;97262.67;1735842;82;25821;-86
2022/01/17 00:54:55;;;;;;;22.75;12.93;;;;;;;1.87;62.87;97257.69;1735878;82;25725;-85
2022/01/17 00:57:22;;;;;;;21.15;12.37;;;;;;;1.85;62.93;97270.31;1735790;82;28230;-85
2022/01/17 00:59:49;;;;;;;24.43;12.60;;;;;;;1.85;63.01;97255.67;1735667;81;26084;-84
2022/01/17 01:02:15;;;;;;;19.05;11.55;;;;;;;1.82;63.00;97255.49;1735809;82;25691;-84
2022/01/17 01:04:42;;;;;;;23.05;13.08;;;;;;;1.82;63.15;97256.83;1735792;82;26498;-84
2022/01/17 01:07:09;;;;;;;19.00;12.45;;;;;;;1.83;63.21;97253.66;1735742;82;25826;-86
2022/01/17 01:09:45;;;;;;;18.62;10.43;;;;;;;1.86;63.24;97257.34;1735789;82;27518;-85
2022/01/17 01:12:04;;;;;;;15.25;9.10;;;;;;;1.90;63.15;97252.05;1733978;81;25723;-84
2022/01/17 01:14:31;;;;;;;17.25;9.70;;;;;;;1.92;63.22;97250.06;1770182;81;25746;-84
2022/01/17 01:17:06;;;;;;;15.75;10.03;;;;;;;1.94;63.26;97253.38;1770040;80;26290;-85
2022/01/17 01:19:28;;;;;;;21.07;10.55;;;;;;;1.94;63.32;97252.04;1768386;81;25685;-85
2022/01/17 01:27:40;;;;;;;16.73;8.75;;;;;;;1.97;63.43;97252.56;1770000;80;27328;-84
2022/01/17 01:30:01;;;;;;;16.23;9.83;;;;;;;2.02;63.41;97236.11;1770015;80;25737;-85
2022/01/17 01:32:37;;;;;;;16.82;8.73;;;;;;;2.02;63.32;97241.44;1770104;80;25711;-85
2022/01/17 01:34:59;;;;;;;14.65;9.95;;;;;;;2.01;63.35;97229.12;1767975;81;27409;-84
2022/01/17 01:37:25;;;;;;;13.70;8.83;;;;;;;1.97;63.51;97227.77;1769893;80;25831;-85
2022/01/17 01:39:53;;;;;;;16.48;9.60;;;;;;;1.93;63.60;97216.63;1770128;79;25643;-85
2022/01/17 01:42:21;;;;;;;14.18;8.90;;;;;;;1.93;63.68;97215.80;1769823;80;25722;-87
2022/01/17 01:44:50;;;;;;;14.98;8.98;;;;;;;1.91;63.75;97198.66;1770065;81;25849;-85
2022/01/17 01:47:18;;;;;;;15.30;10.43;;;;;;;1.88;63.86;97202.13;1769885;80;27338;-84
2022/01/17 01:49:45;;;;;;;15.43;8.85;;;;;;;1.85;63.96;97197.13;1769881;79;25868;-85
2022/01/17 01:52:11;;;;;;;16.10;9.30;;;;;;;1.84;64.01;97192.79;1769832;80;25769;-84
2022/01/17 01:54:38;;;;;;;10.55;7.72;;;;;;;1.83;64.16;97181.31;1770098;81;25734;-86
2022/01/17 01:57:05;;;;;;;12.65;8.30;;;;;;;1.84;64.15;97182.14;1770094;81;25804;-85
2022/01/17 01:59:31;;;;;;;12.37;7.37;;;;;;;1.83;64.17;97176.48;1770124;81;27377;-85
2022/01/17 02:01:58;;;;;;;11.90;7.47;;;;;;;1.84;64.15;97174.16;1769929;80;25783;-87
2022/01/17 02:04:25;;;;;;;11.63;7.87;;;;;;;1.84;64.32;97182.14;1769937;81;25240;-86
2022/01/17 02:06:52;;;;;;;14.20;8.85;;;;;;;1.83;64.36;97184.47;1769980;80;25832;-85
2022/01/17 02:09:18;;;;;;;11.05;7.50;;;;;;;1.83;64.55;97174.66;1770012;81;25841;-84
2022/01/17 02:11:45;;;;;;;9.43;6.75;;;;;;;1.86;64.44;97154.88;1769975;81;27597;-84
2022/01/17 02:14:11;;;;;;;10.63;7.35;;;;;;;1.88;64.49;97138.25;1769904;81;25785;-85
2022/01/17 02:16:40;;;;;;;10.93;7.05;;;;;;;1.85;64.60;97161.19;1737739;81;26207;-85
2022/01/17 02:19:07;;;;;;;10.55;7.17;;;;;;;1.83;64.69;97160.52;1770113;81;25914;-85
2022/01/17 02:21:45;;;;;;;11.43;6.95;;;;;;;1.84;64.70;97155.53;1770158;80;25735;-84
2022/01/17 02:24:02;;;;;;;11.50;7.25;;;;;;;1.85;64.76;97149.21;1767683;79;27468;-86
2022/01/17 02:26:29;;;;;;;8.23;5.22;;;;;;;1.86;64.79;97159.70;1769945;81;26365;-88
2022/01/17 02:28:57;;;;;;;7.55;5.15;;;;;;;1.87;64.75;97160.03;1770009;81;25755;-84
2022/01/17 02:31:25;;;;;;;9.80;5.62;;;;;;;1.90;64.85;97156.22;1769901;79;25746;-84
2022/01/17 02:33:53;;;;;;;8.88;5.62;;;;;;;1.90;64.94;97145.08;1770053;81;25726;-84
2022/01/17 02:36:22;;;;;;;7.40;5.20;;;;;;;1.94;64.97;97144.23;1769878;80;27384;-85
2022/01/17 02:38:48;;;;;;;10.82;6.65;;;;;;;1.96;64.95;97147.07;1762775;81;25794;-84
2022/01/17 02:41:15;;;;;;;10.08;6.30;;;;;;;1.97;65.01;97134.59;1739203;81;25774;-84
2022/01/17 02:43:45;;;;;;;8.68;5.20;;;;;;;1.96;65.00;97138.25;1739111;82;25636;-84
2022/01/17 02:48:39;;;;;;;6.97;4.92;;;;;;;2.00;65.05;97120.96;1739321;82;27632;-84
2022/01/17 02:51:08;;;;;;;5.75;4.08;;;;;;;2.04;64.96;97114.32;1739884;81;25850;-84
2022/01/17 02:53:34;;;;;;;7.87;5.42;;;;;;;2.06;65.05;97106.98;1742357;82;25846;-84
2022/01/17 02:56:05;;;;;;;7.78;5.03;;;;;;;2.08;65.05;97114.30;1742232;81;25720;-85
2022/01/17 02:58:34;;;;;;;7.92;5.25;;;;;;;2.07;64.91;97117.46;1742386;82;25685;-85
2022/01/17 03:01:06;;;;;;;7.10;4.67;;;;;;;2.07;64.95;97096.16;1742293;82;27522;-86
2022/01/17 03:03:33;;;;;;;6.67;4.40;;;;;;;2.08;64.95;97085.85;1741930;81;25686;-86
2022/01/17 03:06:00;;;;;;;7.35;4.97;;;;;;;2.13;64.96;97094.69;1742309;81;25775;-87
2022/01/17 03:08:31;;;;;;;5.87;4.50;;;;;;;2.17;64.98;97090.70;1742294;81;25745;-86
2022/01/17 03:11:00;;;;;;;6.28;4.30;;;;;;;2.18;64.88;97085.67;1742246;82;25707;-85
2022/01/17 03:13:32;;;;;;;7.25;4.75;;;;;;;2.19;64.88;97080.69;1742275;82;28037;-85
2022/01/17 03:16:04;;;;;;;8.83;4.30;;;;;;;2.20;64.80;97079.69;1702122;84;25765;-84
2022/01/17 03:18:33;;;;;;;8.38;4.87;;;;;;;2.21;64.78;97077.86;1702166;84;26545;-84
2022/01/17 03:21:01;;;;;;;6.40;3.77;;;;;;;2.19;64.77;97084.68;1701949;84;25857;-84
2022/01/17 03:23:27;;;;;;;7.92;4.50;;;;;;;2.20;64.77;97085.52;1702071;84;25674;-85
2022/01/17 03:25:56;;;;;;;5.45;4.20;;;;;;;2.22;64.72;97091.52;1702012;84;27545;-85
2022/01/17 03:28:23;;;;;;;5.33;3.72;;;;;;;2.23;64.66;97091.34;1701802;84;25782;-86
2022/01/17 03:30:49;;;;;;;5.12;3.75;;;;;;;2.23;64.63;97082.03;1702025;84;25824;-85
2022/01/17 03:33:17;;;;;;;4.62;3.35;;;;;;;2.26;64.56;97076.88;1710473;82;25856;-85
2022/01/17 03:35:45;;;;;;;8.53;4.55;;;;;;;2.25;64.55;97078.70;1730691;82;25736;-84
2022/01/17 03:38:15;;;;;;;7.00;4.33;;;;;;;2.25;64.56;97071.21;1731219;82;27576;-85
2022/01/17 03:40:43;;;;;;;6.75;4.72;;;;;;;2.24;64.55;97077.53;1731257;82;26414;-84
2022/01/17 03:43:10;;;;;;;6.22;4.53;;;;;;;2.22;64.52;97080.36;1701393;83;25712;-85
2022/01/17 03:45:37;;;;;;;6.92;4.42;;;;;;;2.21;64.51;97073.37;1736306;82;25776;-85
2022/01/17 03:48:04;;;;;;;7.00;4.45;;;;;;;2.19;64.53;97075.36;1736314;82;25781;-85
2022/01/17 03:50:31;;;;;;;7.20;4.90;;;;;;;2.17;64.48;97061.41;1736336;82;27236;-83
2022/01/17 03:52:58;;;;;;;5.92;4.40;;;;;;;2.15;64.54;97043.43;1705483;84;25700;-86
2022/01/17 03:55:27;;;;;;;7.20;4.53;;;;;;;2.16;64.49;97059.74;1735878;82;25761;-86
2022/01/17 03:57:54;;;;;;;6.03;4.65;;;;;;;2.16;64.47;97035.78;1770170;81;25854;-85
2022/01/17 04:00:25;;;;;;;6.83;4.62;;;;;;;2.16;64.53;97040.60;1768589;81;25754;-85
2022/01/17 04:02:54;;;;;;;7.05;4.85;;;;;;;2.15;64.47;97028.28;1770117;80;27479;-84
2022/01/17 04:05:21;;;;;;;7.00;5.28;;;;;;;2.15;64.47;97035.44;1770113;81;25950;-85
2022/01/17 04:07:47;;;;;;;5.70;3.92;;;;;;;2.16;64.55;97046.43;1770049;81;25668;-85
2022/01/17 04:10:15;;;;;;;6.30;4.15;;;;;;;2.18;64.43;97045.23;1770088;81;25774;-84
2022/01/17 04:12:43;;;;;;;6.20;4.37;;;;;;;2.21;64.37;97029.42;1770245;81;25747;-85
2022/01/17 04:15:11;;;;;;;6.28;4.45;;;;;;;2.24;64.40;97029.59;1769733;81;28508;-85
2022/01/17 04:17:40;;;;;;;6.60;4.42;;;;;;;2.25;64.28;97017.95;1769998;79;25692;-88
2022/01/17 04:20:13;;;;;;;6.28;4.17;;;;;;;2.25;64.32;97024.11;1770100;81;25699;-85
2022/01/17 04:22:49;;;;;;;6.03;4.30;;;;;;;2.28;64.25;97022.95;1770138;81;26269;-85
2022/01/17 04:25:12;;;;;;;5.55;4.00;;;;;;;2.28;64.26;97018.45;1769392;79;25798;-85
2022/01/17 04:27:39;;;;;;;6.42;3.85;;;;;;;2.30;64.29;97012.43;1770067;80;27466;-88
2022/01/17 04:30:07;;;;;;;6.40;4.00;;;;;;;2.32;64.22;97018.42;1770005;81;25647;-87
2022/01/17 04:32:34;;;;;;;4.97;3.92;;;;;;;2.32;64.22;97012.27;1770046;81;25820;-83
2022/01/17 04:35:02;;;;;;;4.50;3.52;;;;;;;2.32;64.28;97023.75;1770061;80;25775;-85
2022/01/17 04:37:29;;;;;;;5.62;3.55;;;;;;;2.33;64.34;97018.75;1770086;81;25758;-87
2022/01/17 04:39:56;;;;;;;5.72;3.85;;;;;;;2.35;64.37;97026.09;1770112;81;27362;-85
2022/01/17 04:42:27;;;;;;;5.22;3.92;;;;;;;2.35;64.47;97027.91;1770037;81;25767;-87
2022/01/17 04:45:11;;;;;;;6.80;4.05;;;;;;;2.33;64.42;97025.41;1768995;79;25726;-84
2022/01/17 04:47:41;;;;;;;6.72;4.67;;;;;;;2.31;64.50;97028.74;1770240;80;25937;-87
2022/01/17 04:50:12;;;;;;;5.83;4.37;;;;;;;2.29;64.57;97017.45;1769979;81;25802;-86
2022/01/17 04:52:39;;;;;;;6.67;4.28;;;;;;;2.27;64.62;97018.62;1774624;80;27379;-83
2022/01/17 04:55:09;;;;;;;5.10;4.45;;;;;;;2.25;64.78;97013.45;1778240;80;25706;-84
2022/01/17 04:57:38;;;;;;;6.67;4.35;;;;;;;2.25;64.79;97021.95;1778317;79;25804;-84
2022/01/17 05:00:08;;;;;;;6.45;4.47;;;;;;;2.23;64.83;97031.42;1778269;80;25650;-85
2022/01/17 05:02:35;;;;;;;6.60;4.42;;;;;;;2.22;64.86;97017.78;1778380;79;25710;-84
2022/01/17 05:05:04;;;;;;;8.48;4.92;;;;;;;2.18;65.02;97024.44;1778266;80;27452;-84
2022/01/17 05:07:33;;;;;;;10.10;4.67;;;;;;;2.17;65.10;97019.60;1778127;80;25865;-84
2022/01/17 05:10:04;;;;;;;5.85;4.08;;;;;;;2.16;65.19;97039.77;1778268;80;26256;-84
2022/01/17 05:12:31;;;;;;;6.03;4.58;;;;;;;2.15;65.22;97026.95;1778244;80;25806;-83
2022/01/17 05:14:58;;;;;;;6.85;4.75;;;;;;;2.15;65.27;97026.13;1778305;79;25714;-84
2022/01/17 05:19:58;;;;;;;6.97;4.80;;;;;;;2.14;65.56;97032.44;1778136;80;26393;-83
2022/01/17 05:22:32;;;;;;;7.50;5.20;;;;;;;2.15;65.50;97034.11;1778330;80;26302;-85
2022/01/17 05:25:07;;;;;;;6.90;5.12;;;;;;;2.18;65.49;97041.73;1778281;80;26346;-86
2022/01/17 05:27:35;;;;;;;6.72;5.22;;;;;;;2.17;65.57;97020.13;1778354;79;25718;-87
2022/01/17 05:30:09;;;;;;;6.55;5.05;;;;;;;2.20;65.62;97026.44;1778160;80;27378;-84
2022/01/17 05:32:36;;;;;;;16.95;8.58;;;;;;;2.22;65.79;97023.61;1778163;80;26480;-85
2022/01/17 05:35:04;;;;;;;27.00;12.03;;;;;;;2.23;65.72;97011.45;1778294;80;25767;-83
2022/01/17 05:37:31;;;;;;;25.97;12.65;;;;;;;2.24;65.78;96992.31;1778235;80;25629;-83
2022/01/17 05:39:58;;;;;;;29.98;13.10;;;;;;;2.26;65.93;96996.48;1778319;80;25790;-83
2022/01/17 05:42:26;;;;;;;16.57;8.80;;;;;;;2.26;66.00;97004.97;1778305;80;28163;-83
2022/01/17 05:44:54;;;;;;;13.93;7.30;;;;;;;2.29;66.15;96980.66;1777874;80;25765;-83
2022/01/17 05:47:20;;;;;;;16.65;8.28;;;;;;;2.30;66.00;96981.80;1778264;80;25811;-83
2022/01/17 05:49:47;;;;;;;9.20;6.00;;;;;;;2.30;66.11;96987.12;1778240;80;25904;-83
2022/01/17 05:52:14;;;;;;;12.63;6.05;;;;;;;2.33;66.05;96978.80;1775891;80;25295;-84
2022/01/17 05:54:41;;;;;;;13.98;6.37;;;;;;;2.37;66.07;96970.81;1770019;81;27551;-83
2022/01/17 05:57:09;;;;;;;11.22;6.00;;;;;;;2.42;65.99;96968.45;1769878;80;25665;-83
2022/01/17 05:59:35;;;;;;;8.93;5.30;;;;;;;2.44;66.04;96958.45;1770068;80;25806;-84
2022/01/17 06:02:03;;;;;;;8.40;5.37;;;;;;;2.48;65.95;96966.45;1770098;81;26258;-86
2022/01/17 06:04:29;;;;;;;8.73;5.35;;;;;;;2.50;66.04;96951.13;1769985;80;26305;-82
2022/01/17 06:06:56;;;;;;;9.25;5.40;;;;;;;2.54;66.07;96943.09;1769910;81;27385;-83
2022/01/17 06:09:22;;;;;;;9.58;5.80;;;;;;;2.60;66.02;96939.43;1769369;81;26279;-84
2022/01/17 06:11:49;;;;;;;10.25;6.10;;;;;;;2.65;65.99;96937.92;1768864;81;25455;-84
2022/01/17 06:14:17;;;;;;;10.80;6.15;;;;;;;2.69;65.95;96947.71;1769991;81;26253;-83
2022/01/17 06:16:46;;;;;;;11.68;6.05;;;;;;;2.72;65.94;96930.05;1770030;80;26528;-83
2022/01/17 06:19:13;;;;;;;12.07;5.78;;;;;;;2.75;66.05;96924.38;1769719;80;27649;-82
2022/01/17 06:21:39;;;;;;;9.55;5.85;;;;;;;2.76;65.93;96929.54;1769955;81;25763;-84
2022/01/17 06:24:09;;;;;;;8.05;4.70;;;;;;;2.79;65.92;96931.00;1770062;80;25743;-83
2022/01/17 06:26:38;;;;;;;7.05;4.50;;;;;;;2.82;65.90;96927.99;1769958;81;26543;-84
2022/01/17 06:29:10;;;;;;;15.60;9.15;;;;;;;2.85;65.83;96923.16;1769688;80;25642;-84
2022/01/17 06:31:39;;;;;;;10.72;5.70;;;;;;;2.87;65.79;96920.31;1770054;81;28325;-85
2022/01/17 06:34:06;;;;;;;7.50;5.10;;;;;;;2.90;65.75;96914.61;1769923;80;26109;-86
2022/01/17 06:36:32;;;;;;;8.58;5.87;;;;;;;2.92;65.67;96912.61;1769971;80;25719;-85
2022/01/17 06:39:00;;;;;;;6.62;4.80;;;;;;;2.95;65.63;96906.93;1769960;80;25811;-84
2022/01/17 06:41:27;;;;;;;8.45;5.70;;;;;;;2.98;65.52;96892.42;1769961;81;25761;-82
2022/01/17 06:43:54;;;;;;;7.95;4.20;;;;;;;3.00;65.51;96900.58;1770012;81;27469;-83
2022/01/17 06:46:21;;;;;;;10.40;5.92;;;;;;;3.03;65.38;96898.87;1769597;81;25771;-86
2022/01/17 06:48:48;;;;;;;6.60;4.78;;;;;;;3.04;65.37;96901.03;1769878;80;25297;-85
2022/01/17 06:51:15;;;;;;;7.33;4.72;;;;;;;3.06;65.28;96889.19;1769981;80;25771;-87
2022/01/17 06:53:43;;;;;;;13.88;7.22;;;;;;;3.09;65.22;96882.18;1775806;80;25760;-85
2022/01/17 06:56:10;;;;;;;11.97;6.45;;;;;;;3.10;65.15;96881.17;1778196;80;27642;-87
2022/01/17 06:58:40;;;;;;;10.53;6.75;;;;;;;3.13;65.11;96883.49;1778151;80;25257;-84
2022/01/17 07:01:07;;;;;;;6.80;3.83;;;;;;;3.16;65.04;96874.28;1761378;79;25986;-84
2022/01/17 07:03:33;;;;;;;8.33;4.80;;;;;;;3.15;64.92;96865.45;1747397;81;25763;-83
2022/01/17 07:06:00;;;;;;;8.95;5.53;;;;;;;3.17;64.85;96858.61;1747323;82;25699;-81
2022/01/17 07:08:27;;;;;;;9.68;5.65;;;;;;;3.19;64.83;96848.59;1747344;81;27429;-87
2022/01/17 07:10:54;;;;;;;9.28;6.03;;;;;;;3.20;64.78;96856.42;1747244;81;26221;-85
2022/01/17 07:13:20;;;;;;;19.65;10.13;;;;;;;3.23;64.81;96837.41;1747341;82;26290;-86
2022/01/17 07:15:47;;;;;;;12.15;5.78;;;;;;;3.26;64.70;96826.35;1714143;82;25844;-86
2022/01/17 07:18:14;;;;;;;15.05;8.28;;;;;;;3.25;64.65;96842.56;1706606;84;25803;-84
2022/01/17 07:20:40;;;;;;;13.48;7.62;;;;;;;3.26;64.65;96853.03;1685520;84;27007;-84
2022/01/17 07:23:07;;;;;;;15.83;8.28;;;;;;;3.28;64.65;96864.02;1706433;84;25817;-82
2022/01/17 07:25:38;;;;;;;15.90;9.30;;;;;;;3.28;64.63;96867.52;1685572;84;26348;-85
2022/01/17 07:28:02;;;;;;;10.90;7.17;;;;;;;3.30;64.62;96898.86;1706134;84;26808;-85
2022/01/17 07:30:29;;;;;;;7.22;4.45;;;;;;;3.31;64.56;96901.02;1706745;84;25789;-86
2022/01/17 07:32:55;;;;;;;9.08;5.53;;;;;;;3.29;64.53;96908.36;1706811;84;27362;-83
2022/01/17 07:35:22;;;;;;;7.65;4.92;;;;;;;3.28;64.62;96922.20;1685614;84;25833;-87
2022/01/17 07:37:48;;;;;;;10.03;6.10;;;;;;;3.26;64.63;96895.70;1706711;84;26330;-88
2022/01/17 07:40:15;;;;;;;9.03;4.95;;;;;;;3.27;64.63;96877.86;1685732;85;25840;-86
2022/01/17 07:42:42;;;;;;;11.03;6.15;;;;;;;3.30;64.60;96862.02;1706799;84;25815;-83
2022/01/17 07:45:12;;;;;;;7.50;4.62;;;;;;;3.31;64.63;96839.66;1685532;85;28274;-84
2022/01/17 07:47:42;;;;;;;7.83;4.90;;;;;;;3.31;64.63;96835.16;1706438;84;25811;-84
2022/01/17 07:50:16;;;;;;;7.92;5.00;;;;;;;3.26;64.69;96820.19;1706240;84;25776;-86
2022/01/17 07:52:44;;;;;;;10.55;6.42;;;;;;;3.23;64.85;96825.91;1705594;84;26633;-83
2022/01/17 07:55:12;;;;;;;7.83;5.08;;;;;;;3.21;65.06;96811.41;1701471;84;26359;-85
2022/01/17 07:57:39;;;;;;;7.75;4.78;;;;;;;3.19;65.04;96794.75;1682700;85;27470;-86
2022/01/17 08:00:10;;;;;;;8.50;4.95;;;;;;;3.14;65.33;96805.12;1688992;84;25288;-87
2022/01/17 08:02:36;;;;;;;8.38;5.30;;;;;;;3.08;65.44;96804.52;1689262;84;26628;-85
2022/01/17 08:05:04;;;;;;;10.63;5.42;;;;;;;2.98;65.90;96774.61;1689132;84;26619;-90
2022/01/17 08:07:31;;;;;;;13.35;7.15;;;;;;;2.86;66.16;96775.54;1689127;84;25695;-85
2022/01/17 08:09:59;;;;;;;9.78;6.05;;;;;;;2.74;66.79;96754.81;1688207;83;27653;-85
2022/01/17 08:12:25;;;;;;;8.73;5.87;;;;;;;2.65;66.82;96758.55;1682028;82;25783;-83
2022/01/17 08:14:52;;;;;;;10.68;6.25;;;;;;;2.57;67.18;96766.58;1688893;84;25764;-86
2022/01/17 08:17:18;;;;;;;13.65;7.25;;;;;;;2.50;67.32;96760.64;1711202;82;25710;-86
2022/01/17 08:19:45;;;;;;;10.53;5.85;;;;;;;2.46;67.66;96730.52;1711231;83;25777;-87
2022/01/17 08:22:12;;;;;;;8.55;4.83;;;;;;;2.44;67.95;96740.02;1711342;83;27597;-88
2022/01/17 08:24:38;;;;;;;8.23;5.35;;;;;;;2.43;67.86;96749.02;1711180;83;25724;-91
2022/01/17 08:27:05;;;;;;;10.10;5.62;;;;;;;2.42;67.91;96739.36;1711737;83;25745;-89
2022/01/17 08:29:32;;;;;;;9.83;6.70;;;;;;;2.39;68.11;96731.75;1711167;83;25815;-88
2022/01/17 08:32:00;;;;;;;16.15;9.55;;;;;;;2.40;68.27;96742.73;1711271;83;25732;-95
2022/01/17 08:34:27;;;;;;;12.70;7.12;;;;;;;2.43;68.34;96749.02;1711201;83;27570;-86
2022/01/17 08:36:54;;;;;;;10.72;6.85;;;;;;;2.41;68.59;96730.25;1710980;83;25695;-89
2022/01/17 08:39:21;;;;;;;9.75;6.00;;;;;;;2.42;68.65;96726.55;1711199;82;25713;-84
2022/01/17 08:41:47;;;;;;;17.15;9.13;;;;;;;2.45;68.56;96689.73;1711036;82;25800;-86
2022/01/17 08:44:16;;;;;;;14.93;8.80;;;;;;;2.47;68.77;96703.71;1710949;83;25776;-89
2022/01/17 08:46:42;;;;;;;13.60;8.03;;;;;;;2.49;68.64;96699.05;1710925;83;27448;-87
2022/01/17 08:49:09;;;;;;;14.10;8.55;;;;;;;2.51;68.77;96694.37;1711172;81;26585;-89
2022/01/17 08:51:36;;;;;;;11.60;7.42;;;;;;;2.54;68.68;96696.66;1688886;84;25916;-86
2022/01/17 08:54:03;;;;;;;15.95;9.08;;;;;;;2.59;68.85;96680.64;1679518;82;26318;-86
2022/01/17 08:56:30;;;;;;;17.30;9.38;;;;;;;2.60;68.87;96664.98;1708714;82;25855;-86
2022/01/17 08:58:59;;;;;;;13.10;7.45;;;;;;;2.61;69.00;96661.31;1777741;80;27399;-86
2022/01/17 09:01:26;;;;;;;12.68;7.42;;;;;;;2.62;69.04;96664.30;1777351;79;25777;-88
2022/01/17 09:03:53;;;;;;;14.15;7.22;;;;;;;2.61;68.93;96667.47;1746830;80;25739;-87
2022/01/17 09:06:23;;;;;;;13.00;6.53;;;;;;;2.66;68.87;96648.27;1739364;81;25814;-87
2022/01/17 09:08:49;;;;;;;15.80;8.48;;;;;;;2.69;68.77;96623.42;1739597;80;25700;-87
2022/01/17 09:11:16;;;;;;;9.43;6.05;;;;;;;2.76;68.75;96623.04;1739454;80;27277;-87
2022/01/17 09:13:42;;;;;;;29.65;16.07;;;;;;;2.81;68.56;96626.47;1769872;80;25704;-85
2022/01/17 09:16:09;;;;;;;23.52;11.97;;;;;;;2.87;68.57;96619.92;1785889;78;25764;-87
2022/01/17 09:18:37;;;;;;;14.93;7.95;;;;;;;2.91;68.47;96621.70;1786025;80;25705;-85
2022/01/17 09:21:05;;;;;;;13.13;6.95;;;;;;;2.96;68.36;96604.66;1786040;78;25729;-83
2022/01/17 09:23:31;;;;;;;12.75;6.17;;;;;;;3.00;68.25;96567.30;1785958;80;28397;-86
2022/01/17 09:25:58;;;;;;;14.53;7.85;;;;;;;3.04;68.14;96585.07;1785928;80;25690;-84
2022/01/17 09:28:25;;;;;;;15.45;8.08;;;;;;;3.08;68.16;96592.53;1786024;80;25733;-88
2022/01/17 09:30:52;;;;;;;12.65;6.67;;;;;;;3.12;68.03;96569.83;1786082;78;25669;-87
2022/01/17 09:33:18;;;;;;;17.60;8.10;;;;;;;3.16;67.91;96581.76;1786016;80;25850;-86
2022/01/17 09:35:45;;;;;;;21.57;9.00;;;;;;;3.21;67.86;96582.05;1786086;80;27420;-91
2022/01/17 09:38:11;;;;;;;14.98;7.10;;;;;;;3.26;67.84;96572.96;1785941;79;25750;-88
2022/01/17 09:40:39;;;;;;;15.98;6.42;;;;;;;3.31;67.71;96554.25;1786128;78;25772;-86
2022/01/17 09:43:06;;;;;;;21.48;8.13;;;;;;;3.34;67.58;96537.88;1786013;80;25831;-87
2022/01/17 09:45:32;;;;;;;15.88;7.85;;;;;;;3.37;67.47;96546.84;1786071;79;25754;-87
2022/01/17 09:48:01;;;;;;;14.38;6.67;;;;;;;3.39;67.41;96544.28;1785724;78;27384;-87
2022/01/17 09:50:35;;;;;;;10.60;6.17;;;;;;;3.40;67.33;96537.11;1786137;80;25831;-87
2022/01/17 09:53:02;;;;;;;18.45;9.10;;;;;;;3.45;67.28;96537.39;1786005;80;25764;-86
2022/01/17 09:55:31;;;;;;;24.10;9.63;;;;;;;3.46;67.30;96532.37;1791961;78;44828;-88
2022/01/17 09:58:07;;;;;;;12.43;7.25;;;;;;;3.52;67.38;96542.28;1794371;79;26323;-91
2022/01/17 10:00:38;;;;;;;14.83;5.92;;;;;;;3.53;67.30;96544.77;1794711;78;28298;-86
2022/01/17 10:03:10;;;;;;;15.98;9.08;;;;;;;3.52;67.27;96520.42;1779633;79;25755;-86
2022/01/17 10:05:37;;;;;;;9.35;5.72;;;;;;;3.52;67.35;96520.93;1772882;80;25652;-85
2022/01/17 10:08:11;;;;;;;17.25;7.47;;;;;;;3.49;67.36;96519.49;1770635;80;25812;-88
2022/01/17 10:10:47;;;;;;;9.18;5.37;;;;;;;3.44;67.55;96542.40;1770581;79;25774;-92
2022/01/17 10:13:29;;;;;;;13.80;7.42;;;;;;;3.42;67.59;96537.75;1746342;79;28267;-88
2022/01/17 10:16:07;;;;;;;12.85;6.95;;;;;;;3.39;67.70;96532.78;1771485;80;25698;-87
2022/01/17 10:18:50;;;;;;;9.73;6.20;;;;;;;3.39;67.86;96535.45;1772965;79;25818;-85
2022/01/17 10:21:42;;;;;;;15.75;8.85;;;;;;;3.38;67.88;96523.95;1772564;80;26328;-83
2022/01/17 10:29:53;;;;;;;18.57;9.00;;;;;;;3.20;68.34;96486.22;1770154;80;25272;-87
2022/01/17 10:37:26;;;;;;;14.43;8.73;;;;;;;3.10;68.98;96467.85;1772726;80;25753;-86
2022/01/17 10:39:56;;;;;;;;;;;;;;;3.06;69.03;96449.73;1772612;80;27369;-89
2022/01/17 10:42:27;;;;;;;10.38;6.78;;;;;;;3.06;69.30;96444.41;1772873;80;25904;-87
2022/01/17 10:44:54;;;;;;;15.90;8.75;;;;;;;3.03;69.33;96461.59;1773408;80;25648;-87
2022/01/17 10:47:26;;;;;;;12.45;6.83;;;;;;;3.03;69.48;96442.94;1773066;80;25779;-87
2022/01/17 10:49:57;;;;;;;16.20;8.70;;;;;;;3.05;69.62;96418.25;1773301;80;25755;-93
2022/01/17 10:52:31;;;;;;;9.55;5.87;;;;;;;3.05;69.61;96438.25;1773480;80;28203;-89
2022/01/17 10:55:05;;;;;;;10.28;5.62;;;;;;;3.04;69.83;96423.26;1770538;80;25277;-88
2022/01/17 10:57:39;;;;;;;10.08;5.90;;;;;;;3.03;69.92;96414.11;1770110;80;25746;-86
2022/01/17 11:00:11;;;;;;;8.45;4.67;;;;;;;3.04;70.05;96408.59;1770037;80;25923;-88
2022/01/17 11:02:41;;;;;;;8.53;5.15;;;;;;;3.07;70.09;96406.89;1770312;81;31330;-87
2022/01/17 11:05:13;;;;;;;9.15;5.20;;;;;;;3.08;70.07;96405.88;1739663;81;27540;-90
2022/01/17 11:07:43;;;;;;;5.70;3.95;;;;;;;3.08;70.18;96416.55;1770137;80;25808;-87
2022/01/17 11:10:24;;;;;;;5.20;2.98;;;;;;;3.09;70.22;96422.20;1770073;81;26436;-84
2022/01/17 11:12:54;;;;;;;6.85;3.80;;;;;;;3.10;70.54;96406.52;1770005;80;25762;-86
2022/01/17 11:15:23;;;;;;;8.53;3.77;;;;;;;3.14;70.70;96394.98;1769975;80;25743;-86
2022/01/17 11:17:53;;;;;;;9.25;4.97;;;;;;;3.09;70.61;96387.54;1769963;80;26647;-86
2022/01/17 11:20:26;;;;;;;7.05;3.92;;;;;;;3.11;70.93;96378.84;1769843;81;25744;-86
2022/01/17 11:22:59;;;;;;;9.95;4.95;;;;;;;3.10;70.93;96376.37;1769662;81;25646;-86
2022/01/17 11:25:31;;;;;;;7.45;5.15;;;;;;;3.11;71.01;96389.52;1770131;80;25810;-88
2022/01/17 11:27:59;;;;;;;11.38;6.00;;;;;;;3.07;70.98;96358.08;1770036;81;25821;-85
2022/01/17 11:30:27;;;;;;;16.65;7.55;;;;;;;3.04;71.08;96385.11;1769875;80;28282;-87
2022/01/17 11:32:55;;;;;;;13.35;6.58;;;;;;;3.01;71.12;96377.52;1769856;81;25802;-86
2022/01/17 11:35:24;;;;;;;6.97;3.67;;;;;;;3.00;71.37;96377.19;1769922;80;25786;-84
2022/01/17 11:37:56;;;;;;;9.75;4.75;;;;;;;2.97;71.27;96365.06;1769898;80;26685;-86
2022/01/17 11:40:38;;;;;;;7.70;3.77;;;;;;;2.94;71.43;96348.61;1770087;81;25815;-85
2022/01/17 11:43:32;;;;;;;7.67;4.33;;;;;;;2.88;71.68;96333.70;1770160;80;27484;-84
2022/01/17 11:45:55;;;;;;;7.60;4.47;;;;;;;2.87;71.67;96356.55;1768730;81;26075;-86
2022/01/17 11:48:30;;;;;;;9.50;6.40;;;;;;;2.83;71.85;96359.27;1770023;81;26213;-83
2022/01/17 11:51:14;;;;;;;8.93;4.80;;;;;;;2.81;72.05;96362.61;1769970;80;25774;-84
2022/01/17 11:53:45;;;;;;;6.05;3.67;;;;;;;2.74;72.52;96356.40;1765945;80;25742;-84
2022/01/17 11:56:37;;;;;;;5.35;3.17;;;;;;;2.68;72.46;96374.45;1769772;81;27550;-86
2022/01/17 11:59:24;;;;;;;10.78;5.70;;;;;;;2.65;72.59;96369.02;1770787;81;25883;-82
2022/01/17 12:02:31;;;;;;;6.72;3.00;;;;;;;2.64;72.80;96378.53;1770502;81;25762;-83
2022/01/17 12:05:11;;;;;;;17.23;7.05;;;;;;;2.60;72.96;96376.73;1770258;81;25987;-84
2022/01/17 12:07:44;;;;;;;13.08;6.05;;;;;;;2.52;73.15;96379.01;1770625;80;25795;-84